Terminal Aerodrome Forecast
Issued by NWS

Home | Current Version | Previous Version | Text Only | Print | Product List | Glossary On
Versions: 1 2 3 4 5 6 7 8 9 10 11 12 13 14 15 16 17 18 19 20
000
FTUS41 KGYX 220907 AAA
TAFPSM
TAF AMD
KPSM 220907Z 2209/2306 01015G25KT 4SM -RA BR OVC005
     FM221800 02020G27KT 4SM -RA BR OVC007 WS020/03050KT=

USA.gov is the U.S. government's official web portal to all federal, state and local government web resources and services.